Portada
METAR-TAF:

METAR-TAF

Aeroports :

Hangzhou, Xina

latitud: 30-14N, longitud: 120-10E, altitud: 43 m

Observació

L'informe es va fer fa 44 minuts, a les 10:30 UTC
Vent 2 kt amb direcció variable
Temperatura 10°C
Humitat 93%
Pressió 1019 hPa
Visibilitat: 3500 m
Núvols disperses a una alçada de 600 ft
Cel ennuvolat a una alçada de 1000 ft
Cel ennuvolat a una alçada de 2000 ft
plugim, boirina

METAR: ZSHC 301030Z VRB01MPS 3500 -DZ BR SCT006 BKN010 BKN020 10/09 Q1019 NOSIG

Hora: 19:14 (11:14 UTC)

Pronòstic

L'informe es va fer fa 7 hores i 38 minuts, a les 03:36 UTC
Pronòstic vàlid del 30 a les 06 UTC al 31 a les 06 UTC
Vent 6 kt del Est
Visibilitat: 3000 m
Núvols disperses a una alçada de 1000 ft
Cel ennuvolat a una alçada de 2000 ft
pluja, boirina

TAF: ZSHC 300336Z 3006/3106 09003MPS 3000 -RA BR SCT010 BKN020 TX14/3106Z TN08/3021Z

Observacions i pronòstics meteorològics de més de 4000 aeroports (METAR i TAF).

Les estacions disponibles són els punts grocs i vermells al mapa.

Posi el ratolí al punt desitjat per veure el nom de l'estació.

Feu clic per veure les observacions i els pronòstics meteorològics.

Per canviar el mapa: feu clic els botons verds amb una creu de color negre per apropar; al botó verd amb un guió per allunyar la imatge; o en les fletxes verdes per a mapes adjacents.


METAR-TAF: